createdAt,value
2017-05-14T00:00:11.371Z,50.93
2017-05-14T00:02:41.852Z,52.88
2017-05-14T00:05:12.410Z,52.38
2017-05-14T00:07:42.916Z,49.88
2017-05-14T00:10:13.456Z,49.00
2017-05-14T00:12:43.975Z,50.33
2017-05-14T00:15:14.521Z,50.22
2017-05-14T00:17:45.008Z,49.47
2017-05-14T00:20:15.534Z,46.63
2017-05-14T00:22:45.853Z,47.60
2017-05-14T00:25:16.400Z,47.88
2017-05-14T00:27:46.907Z,46.42
2017-05-14T00:30:17.422Z,46.08
2017-05-14T00:32:47.907Z,46.65
2017-05-14T00:35:18.438Z,46.85
2017-05-14T00:37:48.924Z,44.68
2017-05-14T00:40:19.451Z,45.50
2017-05-14T00:42:49.941Z,46.57
2017-05-14T00:45:20.451Z,45.03
2017-05-14T00:47:50.942Z,47.27
2017-05-14T00:50:21.477Z,47.73
2017-05-14T00:52:51.991Z,46.98
2017-05-14T00:55:22.510Z,47.00
2017-05-14T00:57:53.320Z,48.72
2017-05-14T01:00:23.856Z,47.78
2017-05-14T01:02:54.344Z,47.68
2017-05-14T01:05:24.889Z,47.87
2017-05-14T01:07:55.379Z,46.90
2017-05-14T01:10:25.895Z,45.60
2017-05-14T01:12:56.386Z,47.00
2017-05-14T01:15:26.912Z,45.97
2017-05-14T01:17:57.408Z,47.90
2017-05-14T01:20:27.576Z,45.87
2017-05-14T01:22:57.739Z,47.65
2017-05-14T01:25:28.256Z,46.53
2017-05-14T01:27:58.780Z,46.25
2017-05-14T01:30:29.256Z,45.83
2017-05-14T01:32:59.784Z,49.98
2017-05-14T01:35:29.931Z,47.13
2017-05-14T01:38:00.283Z,51.07
2017-05-14T01:40:30.758Z,53.77
2017-05-14T01:43:00.619Z,50.32
2017-05-14T01:45:30.761Z,49.12
2017-05-14T01:48:01.275Z,46.77
2017-05-14T01:50:31.786Z,49.35
2017-05-14T01:53:02.292Z,52.92
2017-05-14T01:55:32.785Z,55.18
2017-05-14T01:58:03.300Z,52.97
2017-05-14T02:00:33.805Z,49.57
2017-05-14T02:03:04.316Z,46.30
2017-05-14T02:05:34.832Z,50.83
2017-05-14T02:08:05.354Z,48.22
2017-05-14T02:10:35.862Z,44.77
2017-05-14T02:13:06.352Z,47.32
2017-05-14T02:15:36.093Z,48.70
2017-05-14T02:18:06.611Z,48.05
2017-05-14T02:20:37.087Z,50.40
2017-05-14T02:23:07.681Z,46.68
2017-05-14T02:25:38.192Z,48.37
2017-05-14T02:28:08.704Z,49.43
2017-05-14T02:30:39.228Z,52.18
2017-05-14T02:33:09.774Z,52.32
2017-05-14T02:35:40.317Z,52.55
2017-05-14T02:38:10.855Z,51.72
2017-05-14T02:40:41.521Z,48.40
2017-05-14T02:43:12.057Z,48.35
2017-05-14T02:45:42.575Z,54.00
2017-05-14T02:48:13.116Z,51.80
2017-05-14T02:50:43.603Z,50.17
2017-05-14T02:53:14.116Z,50.60
2017-05-14T02:55:44.596Z,50.52
2017-05-14T02:58:15.125Z,48.73
2017-05-14T03:00:45.649Z,48.73
2017-05-14T03:03:16.185Z,48.33
2017-05-14T03:05:46.675Z,46.38
2017-05-14T03:08:17.188Z,46.67
2017-05-14T03:10:47.685Z,47.30
2017-05-14T03:13:18.218Z,45.95
2017-05-14T03:15:48.724Z,45.50
2017-05-14T03:18:19.237Z,45.93
2017-05-14T03:20:49.735Z,46.43
2017-05-14T03:23:20.259Z,46.52
2017-05-14T03:25:50.753Z,47.52
2017-05-14T03:28:21.243Z,45.20
2017-05-14T03:30:51.749Z,48.68
2017-05-14T03:33:22.267Z,49.25
2017-05-14T03:35:52.767Z,46.22
2017-05-14T03:38:23.296Z,47.67
2017-05-14T03:40:53.812Z,44.63
2017-05-14T03:43:24.530Z,43.33
2017-05-14T03:45:55.011Z,41.48
2017-05-14T03:48:25.756Z,42.13
2017-05-14T03:50:56.241Z,41.23
2017-05-14T03:53:27.112Z,42.87
2017-05-14T03:55:57.603Z,48.80
2017-05-14T03:58:28.111Z,40.30
2017-05-14T04:00:58.603Z,43.22
2017-05-14T04:03:29.131Z,42.35
2017-05-14T04:05:59.633Z,42.77
2017-05-14T04:08:30.147Z,43.77
2017-05-14T04:11:00.650Z,43.17
2017-05-14T04:13:31.187Z,41.57
2017-05-14T04:16:01.668Z,40.07
2017-05-14T04:18:32.207Z,43.93
2017-05-14T04:21:03.503Z,42.22
2017-05-14T04:23:34.032Z,42.42
2017-05-14T04:26:04.541Z,41.95
2017-05-14T04:28:35.069Z,40.00
2017-05-14T04:31:05.560Z,38.85
2017-05-14T04:33:36.066Z,41.90
2017-05-14T04:36:06.543Z,42.78
2017-05-14T04:38:37.125Z,42.42
2017-05-14T04:41:07.593Z,41.57
2017-05-14T04:43:38.138Z,42.15
2017-05-14T04:46:08.677Z,43.82
2017-05-14T04:48:39.197Z,40.52
2017-05-14T04:51:09.679Z,43.85
2017-05-14T04:53:40.173Z,39.90
2017-05-14T04:56:10.661Z,39.78
2017-05-14T04:58:41.159Z,41.23
2017-05-14T05:01:11.643Z,38.45
2017-05-14T05:03:42.191Z,37.55
2017-05-14T05:06:12.697Z,37.18
2017-05-14T05:08:43.213Z,36.87
2017-05-14T05:11:13.703Z,35.70
2017-05-14T05:13:44.220Z,36.37
2017-05-14T05:16:14.711Z,37.25
2017-05-14T05:18:45.252Z,36.28
2017-05-14T05:21:15.745Z,36.27
2017-05-14T05:23:46.260Z,37.77
2017-05-14T05:26:16.760Z,38.33
2017-05-14T05:28:47.306Z,36.47
2017-05-14T05:31:17.802Z,38.05
2017-05-14T05:33:48.304Z,38.82
2017-05-14T05:36:18.799Z,35.98
2017-05-14T05:38:49.349Z,35.68
2017-05-14T05:41:19.852Z,36.82
2017-05-14T05:43:50.099Z,33.86
2017-05-14T05:46:20.323Z,35.34
2017-05-14T05:48:50.599Z,32.76
2017-05-14T05:51:20.821Z,30.72
2017-05-14T05:53:51.046Z,30.12
2017-05-14T05:56:21.268Z,30.08
2017-05-14T05:58:52.248Z,31.22
2017-05-14T06:01:22.455Z,28.80
2017-05-14T06:03:52.708Z,30.28
2017-05-14T06:06:22.929Z,29.34
2017-05-14T06:08:53.156Z,29.46
2017-05-14T06:11:23.374Z,28.32
2017-05-14T06:13:53.427Z,28.60
2017-05-14T06:16:23.703Z,29.86
2017-05-14T06:18:53.937Z,28.50
2017-05-14T06:21:24.172Z,29.78
2017-05-14T06:23:54.392Z,29.54
2017-05-14T06:26:25.355Z,29.00
2017-05-14T06:28:55.585Z,28.44
2017-05-14T06:31:25.815Z,29.08
2017-05-14T06:33:56.040Z,28.68
2017-05-14T06:36:26.268Z,29.14
2017-05-14T06:38:56.490Z,27.80
2017-05-14T06:41:26.719Z,28.06
2017-05-14T06:43:56.928Z,28.76
2017-05-14T06:46:27.181Z,25.62
2017-05-14T06:48:57.458Z,25.42
2017-05-14T06:51:27.743Z,24.20
2017-05-14T06:53:57.984Z,24.50
2017-05-14T06:56:28.213Z,21.94
2017-05-14T06:58:58.509Z,21.60
2017-05-14T07:01:28.742Z,21.10
2017-05-14T07:03:58.943Z,21.02
2017-05-14T07:06:29.229Z,21.46
2017-05-14T07:08:59.456Z,21.02
2017-05-14T07:11:29.728Z,19.42
2017-05-14T07:14:00.072Z,20.02
2017-05-14T07:16:30.325Z,20.60
2017-05-14T07:19:00.634Z,19.78
2017-05-14T07:21:30.872Z,20.46
2017-05-14T07:24:01.109Z,21.22
2017-05-14T07:26:31.317Z,18.66
2017-05-14T07:29:01.536Z,21.04
2017-05-14T07:31:31.757Z,19.64
2017-05-14T07:34:02.000Z,21.50
2017-05-14T07:36:32.215Z,20.22
2017-05-14T07:39:02.472Z,21.38
2017-05-14T07:41:32.746Z,20.76
2017-05-14T07:44:02.982Z,42.94
2017-05-14T07:46:33.226Z,22.74
2017-05-14T07:49:03.458Z,24.34
2017-05-14T07:51:33.670Z,28.94
2017-05-14T07:54:03.912Z,21.04
2017-05-14T07:56:34.136Z,22.90
2017-05-14T07:59:04.373Z,19.02
2017-05-14T08:01:34.765Z,24.76
2017-05-14T08:04:05.008Z,20.50
2017-05-14T08:06:35.263Z,20.32
2017-05-14T08:09:05.159Z,20.66
2017-05-14T08:11:35.368Z,20.40
2017-05-14T08:14:05.605Z,19.90
2017-05-14T08:16:35.805Z,20.14
2017-05-14T08:19:06.030Z,19.52
2017-05-14T08:21:36.246Z,18.38
2017-05-14T08:24:06.475Z,16.36
2017-05-14T08:26:36.696Z,15.60
2017-05-14T08:29:06.921Z,12.84
2017-05-14T08:31:37.142Z,12.38
2017-05-14T08:34:07.381Z,12.80
2017-05-14T08:36:37.589Z,9.56
2017-05-14T08:39:07.825Z,8.24
2017-05-14T08:41:38.016Z,8.92
2017-05-14T08:44:08.276Z,8.40
2017-05-14T08:46:38.459Z,8.28
2017-05-14T08:49:08.679Z,8.80
2017-05-14T08:51:38.900Z,10.46
2017-05-14T08:54:09.133Z,10.02
2017-05-14T08:56:39.379Z,10.20
2017-05-14T08:59:09.644Z,9.42
2017-05-14T09:01:39.857Z,8.48
2017-05-14T09:04:10.079Z,7.38
2017-05-14T09:06:40.319Z,7.28
2017-05-14T09:09:10.554Z,6.98
2017-05-14T09:11:40.763Z,7.64
2017-05-14T09:14:11.012Z,8.16
2017-05-14T09:16:41.228Z,8.06
2017-05-14T09:19:11.439Z,6.84
2017-05-14T09:21:41.636Z,7.10
2017-05-14T09:24:11.889Z,7.54
2017-05-14T09:26:42.256Z,7.06
2017-05-14T09:29:12.501Z,6.50
2017-05-14T09:31:42.761Z,7.10
2017-05-14T09:34:13.158Z,7.04
2017-05-14T09:36:43.480Z,8.68
2017-05-14T09:39:13.984Z,23.76
2017-05-14T09:41:44.235Z,26.38
2017-05-14T09:44:14.496Z,17.14
2017-05-14T09:46:44.741Z,8.30
2017-05-14T09:49:15.008Z,9.78
2017-05-14T09:51:45.224Z,12.90
2017-05-14T09:54:16.191Z,12.00
2017-05-14T09:56:46.425Z,24.44
2017-05-14T09:59:16.654Z,7.66
2017-05-14T10:01:46.881Z,10.32
2017-05-14T10:04:17.124Z,10.40
2017-05-14T10:06:47.347Z,10.26
2017-05-14T10:09:17.567Z,10.78
2017-05-14T10:11:47.786Z,12.14
2017-05-14T10:14:18.014Z,9.20
2017-05-14T10:16:48.265Z,13.60
2017-05-14T10:19:18.540Z,16.76
2017-05-14T10:21:48.771Z,9.52
2017-05-14T10:24:18.982Z,8.80
2017-05-14T10:26:49.228Z,6.00
2017-05-14T10:29:19.491Z,7.20
2017-05-14T10:31:49.716Z,6.98
2017-05-14T10:34:19.924Z,7.40
2017-05-14T10:36:50.586Z,9.90
2017-05-14T10:39:20.810Z,7.56
2017-05-14T10:41:51.768Z,7.84
2017-05-14T10:44:22.033Z,7.24
2017-05-14T10:46:52.280Z,8.94
2017-05-14T10:49:22.490Z,9.98
2017-05-14T10:51:52.732Z,9.82
2017-05-14T10:54:22.948Z,10.50
2017-05-14T10:56:53.179Z,11.34
2017-05-14T10:59:23.397Z,12.44
2017-05-14T11:01:53.648Z,11.36
2017-05-14T11:04:23.856Z,9.02
2017-05-14T11:06:54.072Z,8.68
2017-05-14T11:09:24.295Z,10.12
2017-05-14T11:11:54.534Z,10.08
2017-05-14T11:14:24.753Z,16.74
2017-05-14T11:16:54.988Z,9.46
2017-05-14T11:19:25.190Z,10.10
2017-05-14T11:21:55.435Z,10.58
2017-05-14T11:24:25.660Z,9.00
2017-05-14T11:26:55.880Z,11.12
2017-05-14T11:29:26.110Z,9.00
2017-05-14T11:31:56.351Z,9.52
2017-05-14T11:34:26.580Z,8.78
2017-05-14T11:36:56.830Z,8.40
2017-05-14T11:39:27.069Z,8.42
2017-05-14T11:41:57.341Z,8.62
2017-05-14T11:44:27.552Z,7.60
2017-05-14T11:46:57.776Z,7.98
2017-05-14T11:49:28.007Z,7.36
2017-05-14T11:51:58.247Z,9.58
2017-05-14T11:54:28.488Z,7.42
2017-05-14T11:56:58.740Z,8.74
2017-05-14T11:59:28.941Z,7.64
2017-05-14T12:01:59.156Z,6.72
2017-05-14T12:04:29.376Z,6.18
2017-05-14T12:06:59.611Z,6.14
2017-05-14T12:09:29.856Z,6.54
2017-05-14T12:12:00.083Z,5.30
2017-05-14T12:14:30.290Z,6.02
2017-05-14T12:17:00.503Z,6.70
2017-05-14T12:19:30.723Z,5.94
2017-05-14T12:22:01.015Z,5.80
2017-05-14T12:24:31.262Z,5.42
2017-05-14T12:27:01.505Z,8.18
2017-05-14T12:29:31.699Z,4.98
2017-05-14T12:32:01.919Z,5.26
2017-05-14T12:34:32.128Z,5.46
2017-05-14T12:37:02.351Z,5.60
2017-05-14T12:39:32.539Z,5.84
2017-05-14T12:42:02.752Z,6.36
2017-05-14T12:44:32.969Z,5.14
2017-05-14T12:47:03.166Z,4.14
2017-05-14T12:49:33.375Z,5.18
2017-05-14T12:52:03.569Z,4.26
2017-05-14T12:54:33.780Z,4.40
2017-05-14T12:57:03.989Z,4.66
2017-05-14T12:59:34.199Z,4.34
2017-05-14T13:02:04.403Z,3.52
2017-05-14T13:04:34.641Z,2.98
2017-05-14T13:07:04.490Z,3.52
2017-05-14T13:09:35.141Z,3.30
2017-05-14T13:12:05.387Z,3.48
2017-05-14T13:14:35.598Z,3.40
2017-05-14T13:17:05.805Z,4.80
2017-05-14T13:19:36.018Z,5.50
2017-05-14T13:22:06.228Z,5.24
2017-05-14T13:24:36.460Z,6.30
2017-05-14T13:27:06.677Z,7.20
2017-05-14T13:29:36.963Z,9.20
2017-05-14T13:32:07.167Z,9.30
2017-05-14T13:34:37.517Z,9.02
2017-05-14T13:37:07.800Z,8.98
2017-05-14T13:39:38.049Z,7.88
2017-05-14T13:42:08.314Z,8.10
2017-05-14T13:44:38.585Z,8.76
2017-05-14T13:47:08.471Z,8.20
2017-05-14T13:49:38.718Z,7.72
2017-05-14T13:52:09.031Z,7.80
2017-05-14T13:54:39.360Z,8.10
2017-05-14T13:57:09.595Z,8.32
2017-05-14T13:59:39.909Z,8.56
2017-05-14T14:02:10.258Z,7.60
2017-05-14T14:04:40.615Z,13.64
2017-05-14T14:07:10.862Z,9.08
2017-05-14T14:09:41.444Z,8.80
2017-05-14T14:12:11.681Z,9.78
2017-05-14T14:14:42.012Z,11.70
2017-05-14T14:17:12.163Z,9.46
2017-05-14T14:19:42.463Z,9.62
2017-05-14T14:22:12.860Z,10.56
2017-05-14T14:24:43.193Z,10.12
2017-05-14T14:27:13.506Z,9.62
2017-05-14T14:29:43.918Z,15.42
2017-05-14T14:32:14.522Z,8.92
2017-05-14T14:34:44.886Z,10.50
2017-05-14T14:37:15.241Z,10.74
2017-05-14T14:39:45.549Z,10.44
2017-05-14T14:42:15.884Z,9.56
2017-05-14T14:44:46.372Z,9.87
2017-05-14T14:47:16.950Z,10.73
2017-05-14T14:49:47.444Z,9.90
2017-05-14T14:52:17.984Z,10.03
2017-05-14T14:54:48.256Z,10.48
2017-05-14T14:57:18.520Z,10.78
2017-05-14T14:59:49.014Z,11.13
2017-05-14T15:02:19.274Z,16.80
2017-05-14T15:04:49.782Z,10.68
2017-05-14T15:07:20.061Z,7.42
2017-05-14T15:09:50.279Z,9.16
2017-05-14T15:12:20.520Z,8.68
2017-05-14T15:14:50.730Z,5.56
2017-05-14T15:17:20.947Z,4.82
2017-05-14T15:19:51.153Z,4.38
2017-05-14T15:22:21.375Z,5.16
2017-05-14T15:24:51.598Z,5.50
2017-05-14T15:27:21.827Z,4.88
2017-05-14T15:29:52.051Z,4.00
2017-05-14T15:32:22.297Z,4.14
2017-05-14T15:34:52.499Z,4.48
2017-05-14T15:37:22.786Z,3.98
2017-05-14T15:39:53.030Z,5.06
2017-05-14T15:42:23.761Z,4.50
2017-05-14T15:44:53.991Z,5.06
2017-05-14T15:47:24.212Z,3.60
2017-05-14T15:49:54.435Z,3.52
2017-05-14T15:52:24.632Z,4.34
2017-05-14T15:54:54.852Z,3.90
2017-05-14T15:57:25.079Z,4.38
2017-05-14T15:59:55.340Z,5.30
2017-05-14T16:02:25.676Z,4.92
2017-05-14T16:04:55.920Z,5.26
2017-05-14T16:07:26.126Z,5.20
2017-05-14T16:09:56.347Z,5.98
2017-05-14T16:12:26.561Z,6.42
2017-05-14T16:14:56.788Z,5.36
2017-05-14T16:17:27.015Z,6.34
2017-05-14T16:19:57.258Z,7.00
2017-05-14T16:22:27.475Z,5.60
2017-05-14T16:24:57.709Z,24.48
2017-05-14T16:27:28.204Z,34.94
2017-05-14T16:29:58.518Z,21.82
2017-05-14T16:32:28.760Z,7.46
2017-05-14T16:34:58.979Z,12.96
2017-05-14T16:37:29.212Z,29.62
2017-05-14T16:40:00.025Z,7.02
2017-05-14T16:42:30.237Z,7.54
2017-05-14T16:45:00.470Z,8.88
2017-05-14T16:47:30.671Z,14.82
2017-05-14T16:50:00.924Z,6.88
2017-05-14T16:52:31.148Z,8.20
2017-05-14T16:55:01.383Z,7.10
2017-05-14T16:57:31.636Z,7.84
2017-05-14T17:00:01.852Z,8.32
2017-05-14T17:02:32.076Z,7.62
2017-05-14T17:05:02.279Z,8.18
2017-05-14T17:07:32.507Z,8.12
2017-05-14T17:10:02.736Z,7.04
2017-05-14T17:12:32.862Z,8.12
2017-05-14T17:15:03.075Z,7.44
2017-05-14T17:17:33.304Z,7.92
2017-05-14T17:20:03.524Z,5.32
2017-05-14T17:22:33.726Z,6.24
2017-05-14T17:25:03.939Z,6.00
2017-05-14T17:27:34.157Z,6.28
2017-05-14T17:30:04.350Z,6.12
2017-05-14T17:32:34.593Z,5.68
2017-05-14T17:35:04.879Z,5.74
2017-05-14T17:37:35.119Z,15.70
2017-05-14T17:40:06.085Z,10.60
2017-05-14T17:42:36.344Z,8.78
2017-05-14T17:45:06.558Z,12.86
2017-05-14T17:47:36.860Z,10.48
2017-05-14T17:50:07.071Z,12.64
2017-05-14T17:52:37.332Z,17.46
2017-05-14T17:55:07.549Z,11.74
2017-05-14T17:57:37.787Z,11.28
2017-05-14T18:00:08.020Z,11.36
2017-05-14T18:02:38.265Z,135.94
2017-05-14T18:05:08.471Z,8.10
2017-05-14T18:07:38.733Z,26.18
2017-05-14T18:10:08.951Z,22.14
2017-05-14T18:12:39.939Z,13.22
2017-05-14T18:15:10.162Z,23.36
2017-05-14T18:17:40.404Z,13.20
2017-05-14T18:20:10.632Z,9.36
2017-05-14T18:22:41.205Z,13.02
2017-05-14T18:25:11.434Z,6.60
2017-05-14T18:27:41.935Z,5.90
2017-05-14T18:30:12.159Z,7.86
2017-05-14T18:32:42.376Z,5.84
2017-05-14T18:35:12.607Z,6.34
2017-05-14T18:37:42.811Z,6.40
2017-05-14T18:40:13.051Z,7.16
2017-05-14T18:42:43.258Z,6.60
2017-05-14T18:45:13.485Z,23.88
2017-05-14T18:47:43.695Z,7.22
2017-05-14T18:50:13.928Z,7.18
2017-05-14T18:52:44.137Z,9.92
2017-05-14T18:55:14.388Z,10.10
2017-05-14T18:57:44.892Z,9.83
2017-05-14T19:00:15.116Z,8.34
2017-05-14T19:02:45.318Z,7.38
2017-05-14T19:05:15.808Z,7.28
2017-05-14T19:07:46.263Z,7.95
2017-05-14T19:10:16.580Z,9.68
2017-05-14T19:12:47.084Z,48.12
2017-05-14T19:15:17.613Z,34.08
2017-05-14T19:17:48.113Z,11.02
2017-05-14T19:20:18.620Z,9.23
2017-05-14T19:22:49.103Z,8.92
2017-05-14T19:25:19.631Z,8.40
2017-05-14T19:27:50.140Z,8.30
2017-05-14T19:30:20.651Z,9.73
2017-05-14T19:32:51.144Z,9.00
2017-05-14T19:35:21.636Z,9.17
2017-05-14T19:37:52.118Z,9.55
2017-05-14T19:40:22.656Z,10.18
2017-05-14T19:42:53.162Z,9.62
2017-05-14T19:45:23.685Z,11.88
2017-05-14T19:47:54.171Z,10.62
2017-05-14T19:50:25.437Z,11.02
2017-05-14T19:52:55.962Z,11.13
2017-05-14T19:55:26.529Z,11.07
2017-05-14T19:57:57.014Z,10.25
2017-05-14T20:00:28.300Z,11.52
2017-05-14T20:02:58.791Z,11.55
2017-05-14T20:05:29.319Z,11.23
2017-05-14T20:07:59.820Z,10.73
2017-05-14T20:10:30.336Z,10.28
2017-05-14T20:13:00.846Z,11.55
2017-05-14T20:15:31.356Z,11.13
2017-05-14T20:18:01.840Z,12.18
2017-05-14T20:20:32.347Z,10.90
2017-05-14T20:23:03.580Z,10.95
2017-05-14T20:25:34.096Z,11.00
2017-05-14T20:28:04.584Z,10.97
2017-05-14T20:30:35.108Z,11.50
2017-05-14T20:33:05.591Z,12.23
2017-05-14T20:35:36.123Z,12.23
2017-05-14T20:38:06.750Z,12.73
2017-05-14T20:40:37.244Z,12.02
2017-05-14T20:43:07.733Z,11.45
2017-05-14T20:45:38.367Z,12.72
2017-05-14T20:48:08.862Z,12.90
2017-05-14T20:50:39.396Z,11.82
2017-05-14T20:53:09.899Z,11.53
2017-05-14T20:55:40.443Z,12.33
2017-05-14T20:58:10.944Z,12.17
2017-05-14T21:00:41.444Z,12.57
2017-05-14T21:03:11.763Z,11.02
2017-05-14T21:05:42.288Z,11.72
2017-05-14T21:08:12.776Z,12.67
2017-05-14T21:10:43.310Z,12.93
2017-05-14T21:13:13.832Z,13.32
2017-05-14T21:15:44.377Z,13.92
2017-05-14T21:18:14.874Z,13.47
2017-05-14T21:20:45.402Z,15.03
2017-05-14T21:23:15.980Z,13.77
2017-05-14T21:25:46.479Z,16.27
2017-05-14T21:28:17.041Z,15.23
2017-05-14T21:30:47.540Z,13.83
2017-05-14T21:33:18.040Z,13.08
2017-05-14T21:35:48.954Z,13.63
2017-05-14T21:38:19.449Z,13.77
2017-05-14T21:40:49.951Z,12.28
2017-05-14T21:43:20.516Z,12.83
2017-05-14T21:45:51.066Z,15.27
2017-05-14T21:48:21.605Z,13.13
2017-05-14T21:50:52.109Z,14.58
2017-05-14T21:53:22.655Z,14.70
2017-05-14T21:55:53.160Z,14.10
2017-05-14T21:58:23.651Z,13.82
2017-05-14T22:00:53.675Z,14.83
2017-05-14T22:03:24.164Z,18.67
2017-05-14T22:05:54.690Z,14.02
2017-05-14T22:08:25.799Z,14.62
2017-05-14T22:10:56.331Z,13.52
2017-05-14T22:13:26.846Z,14.40
2017-05-14T22:15:57.369Z,14.28
2017-05-14T22:18:27.864Z,13.97
2017-05-14T22:20:58.386Z,14.20
2017-05-14T22:23:28.924Z,13.55
2017-05-14T22:25:59.473Z,15.62
2017-05-14T22:28:29.972Z,14.83
2017-05-14T22:31:00.531Z,15.52
2017-05-14T22:33:31.849Z,14.83
2017-05-14T22:36:03.289Z,14.85
2017-05-14T22:38:33.795Z,14.20
2017-05-14T22:41:04.335Z,14.95
2017-05-14T22:43:35.464Z,15.72
2017-05-14T22:46:06.016Z,15.97
2017-05-14T22:48:36.512Z,16.10
2017-05-14T22:51:07.056Z,15.55
2017-05-14T22:53:38.164Z,14.58
2017-05-14T22:56:08.668Z,15.18
2017-05-14T22:58:39.162Z,15.57
2017-05-14T23:01:09.488Z,13.93
2017-05-14T23:03:40.029Z,13.13
2017-05-14T23:06:10.218Z,16.92
2017-05-14T23:08:40.716Z,14.82
2017-05-14T23:11:11.245Z,15.53
2017-05-14T23:13:41.400Z,15.10
2017-05-14T23:16:11.940Z,15.43
2017-05-14T23:18:42.464Z,15.35
2017-05-14T23:21:13.341Z,14.98
2017-05-14T23:23:44.571Z,15.23
2017-05-14T23:26:15.118Z,14.45
2017-05-14T23:28:45.637Z,14.70
2017-05-14T23:31:16.191Z,14.15
2017-05-14T23:33:46.709Z,14.47
2017-05-14T23:36:17.843Z,15.43
2017-05-14T23:38:48.412Z,16.27
2017-05-14T23:41:18.955Z,15.40
2017-05-14T23:43:49.453Z,16.27
2017-05-14T23:46:19.984Z,15.58
2017-05-14T23:48:50.469Z,14.97
2017-05-14T23:51:21.032Z,14.48
2017-05-14T23:53:52.234Z,13.77
2017-05-14T23:56:23.261Z,14.73
2017-05-14T23:58:54.855Z,13.42
